createdAt,value
2023-05-21T00:01:16.811Z,19.45
2023-05-21T00:03:46.267Z,19.53
2023-05-21T00:06:13.896Z,19.57
2023-05-21T00:08:41.422Z,19.58
2023-05-21T00:11:08.362Z,19.58
2023-05-21T00:13:35.015Z,19.60
2023-05-21T00:16:01.777Z,19.63
2023-05-21T00:18:28.579Z,19.66
2023-05-21T00:20:55.316Z,19.67
2023-05-21T00:23:22.074Z,19.68
2023-05-21T00:25:50.493Z,19.71
2023-05-21T00:28:17.315Z,19.72
2023-05-21T00:30:44.563Z,19.72
2023-05-21T00:33:13.918Z,19.72
2023-05-21T00:35:40.922Z,19.73
2023-05-21T00:38:08.599Z,19.73
2023-05-21T00:40:41.287Z,19.72
2023-05-21T00:43:10.759Z,19.70
2023-05-21T00:45:37.834Z,19.68
2023-05-21T00:48:06.558Z,19.66
2023-05-21T00:50:33.718Z,19.63
2023-05-21T00:53:00.487Z,19.60
2023-05-21T00:55:27.843Z,19.58
2023-05-21T00:57:55.102Z,19.54
2023-05-21T01:00:24.709Z,19.51
2023-05-21T01:02:52.204Z,19.49
2023-05-21T01:05:19.418Z,19.45
2023-05-21T01:07:46.694Z,19.41
2023-05-21T01:10:13.631Z,19.37
2023-05-21T01:12:43.866Z,19.34
2023-05-21T01:15:11.378Z,19.31
2023-05-21T01:17:39.226Z,19.29
2023-05-21T01:20:10.585Z,19.27
2023-05-21T01:22:43.971Z,19.23
2023-05-21T01:25:11.199Z,19.20
2023-05-21T01:27:37.871Z,19.16
2023-05-21T01:30:06.402Z,19.11
2023-05-21T01:32:40.527Z,19.06
2023-05-21T01:35:36.886Z,19.03
2023-05-21T01:38:24.837Z,19.01
2023-05-21T01:41:05.882Z,18.99
2023-05-21T01:43:35.008Z,18.92
2023-05-21T01:46:02.828Z,18.85
2023-05-21T01:48:31.018Z,18.78
2023-05-21T01:51:00.846Z,18.71
2023-05-21T01:53:27.677Z,18.68
2023-05-21T01:55:54.753Z,18.65
2023-05-21T01:58:23.103Z,18.59
2023-05-21T02:00:51.294Z,18.49
2023-05-21T02:03:19.631Z,18.45
2023-05-21T02:05:47.272Z,18.37
2023-05-21T02:08:15.107Z,18.30
2023-05-21T02:10:41.870Z,18.24
2023-05-21T02:13:08.888Z,18.17
2023-05-21T02:15:35.817Z,18.14
2023-05-21T02:18:03.765Z,18.08
2023-05-21T02:20:31.477Z,18.06
2023-05-21T02:22:58.177Z,18.01
2023-05-21T02:25:24.923Z,17.95
2023-05-21T02:27:53.792Z,17.93
2023-05-21T02:30:21.078Z,17.95
2023-05-21T02:32:50.020Z,17.94
2023-05-21T02:35:17.042Z,17.89
2023-05-21T02:37:44.463Z,17.84
2023-05-21T02:40:12.361Z,17.82
2023-05-21T02:42:41.422Z,17.84
2023-05-21T02:45:11.461Z,17.85
2023-05-21T02:47:39.331Z,17.86
2023-05-21T02:50:08.907Z,17.84
2023-05-21T02:52:41.851Z,17.80
2023-05-21T02:55:09.215Z,17.78
2023-05-21T02:57:35.849Z,17.73
2023-05-21T03:00:06.124Z,17.73
2023-05-21T03:02:33.648Z,17.73
2023-05-21T03:05:00.781Z,17.72
2023-05-21T03:07:27.731Z,17.69
2023-05-21T03:09:54.788Z,17.70
2023-05-21T03:12:21.737Z,17.67
2023-05-21T03:14:51.509Z,17.64
2023-05-21T03:17:20.758Z,17.61
2023-05-21T03:19:49.389Z,17.57
2023-05-21T03:22:16.681Z,17.52
2023-05-21T03:24:45.180Z,17.47
2023-05-21T03:27:12.249Z,17.45
2023-05-21T03:29:40.395Z,17.44
2023-05-21T03:32:07.923Z,17.45
2023-05-21T03:34:35.701Z,17.44
2023-05-21T03:37:02.605Z,17.49
2023-05-21T03:39:29.316Z,17.59
2023-05-21T03:41:56.119Z,17.61
2023-05-21T03:44:32.488Z,17.65
2023-05-21T03:47:17.779Z,17.68
2023-05-21T03:49:44.622Z,17.80
2023-05-21T03:52:11.308Z,17.91
2023-05-21T03:54:38.029Z,18.06
2023-05-21T03:57:06.782Z,18.28
2023-05-21T03:59:33.865Z,18.44
2023-05-21T04:02:01.012Z,18.64
2023-05-21T04:04:29.794Z,18.83
2023-05-21T04:06:56.864Z,18.97
2023-05-21T04:09:23.839Z,19.17
2023-05-21T04:11:52.288Z,19.32
2023-05-21T04:14:19.101Z,19.47
2023-05-21T04:16:46.112Z,19.58
2023-05-21T04:19:12.872Z,19.66
2023-05-21T04:21:40.619Z,19.77
2023-05-21T04:24:07.905Z,19.87
2023-05-21T04:26:49.940Z,19.93
2023-05-21T04:29:18.233Z,20.00
2023-05-21T04:31:45.626Z,20.06
2023-05-21T04:34:13.482Z,20.12
2023-05-21T04:36:40.184Z,20.17
2023-05-21T04:39:08.142Z,20.22
2023-05-21T04:41:34.930Z,20.29
2023-05-21T04:44:01.775Z,20.35
2023-05-21T04:46:31.047Z,20.42
2023-05-21T04:48:58.268Z,20.49
2023-05-21T04:51:26.796Z,20.53
2023-05-21T04:53:53.959Z,20.56
2023-05-21T04:56:26.463Z,20.61
2023-05-21T04:58:54.515Z,20.68
2023-05-21T05:01:23.813Z,20.75
2023-05-21T05:03:50.802Z,20.84
2023-05-21T05:06:18.311Z,20.87
2023-05-21T05:08:46.414Z,20.89
2023-05-21T05:11:14.463Z,20.91
2023-05-21T05:13:42.164Z,20.94
2023-05-21T05:16:09.688Z,20.96
2023-05-21T05:18:37.292Z,20.97
2023-05-21T05:21:04.291Z,21.02
2023-05-21T05:23:32.066Z,21.05
2023-05-21T05:25:58.911Z,21.08
2023-05-21T05:28:26.053Z,21.09
2023-05-21T05:30:52.769Z,21.09
2023-05-21T05:33:23.435Z,21.07
2023-05-21T05:35:50.271Z,21.03
2023-05-21T05:38:17.148Z,21.02
2023-05-21T05:40:44.047Z,21.01
2023-05-21T05:43:11.015Z,21.01
2023-05-21T05:45:38.028Z,21.02
2023-05-21T05:48:10.320Z,21.05
2023-05-21T05:50:37.273Z,21.07
2023-05-21T05:53:03.907Z,21.07
2023-05-21T05:55:30.671Z,21.08
2023-05-21T05:57:57.541Z,21.08
2023-05-21T06:00:24.668Z,21.12
2023-05-21T06:02:52.031Z,21.14
2023-05-21T06:05:20.422Z,21.16
2023-05-21T06:07:47.368Z,21.16
2023-05-21T06:10:14.004Z,21.17
2023-05-21T06:12:41.644Z,21.20
2023-05-21T06:15:09.453Z,21.25
2023-05-21T06:17:36.903Z,21.29
2023-05-21T06:20:04.580Z,21.32
2023-05-21T06:22:31.723Z,21.38
2023-05-21T06:24:58.639Z,21.41
2023-05-21T06:27:25.583Z,21.45
2023-05-21T06:29:52.717Z,21.49
2023-05-21T06:32:21.526Z,21.58
2023-05-21T06:34:49.120Z,21.65
2023-05-21T06:37:24.845Z,21.72
2023-05-21T06:39:53.224Z,21.79
2023-05-21T06:42:20.073Z,21.85
2023-05-21T06:44:53.791Z,21.89
2023-05-21T06:47:28.569Z,21.93
2023-05-21T06:49:56.267Z,21.96
2023-05-21T06:52:22.936Z,21.99
2023-05-21T06:54:50.125Z,22.04
2023-05-21T06:57:18.449Z,22.11
2023-05-21T06:59:45.109Z,22.19
2023-05-21T07:02:11.875Z,22.30
2023-05-21T07:04:38.712Z,22.43
2023-05-21T07:07:05.813Z,22.58
2023-05-21T07:09:33.008Z,22.82
2023-05-21T07:11:59.847Z,23.18
2023-05-21T07:14:26.785Z,23.47
2023-05-21T07:16:53.763Z,23.63
2023-05-21T07:19:20.623Z,23.88
2023-05-21T07:21:49.545Z,24.19
2023-05-21T07:24:16.816Z,24.49
2023-05-21T07:26:43.585Z,24.84
2023-05-21T07:29:10.898Z,25.07
2023-05-21T07:31:38.340Z,25.18
2023-05-21T07:34:06.347Z,25.33
2023-05-21T07:36:33.798Z,25.37
2023-05-21T07:39:03.432Z,25.26
2023-05-21T07:41:30.698Z,25.10
2023-05-21T07:43:58.023Z,24.93
2023-05-21T07:46:24.899Z,24.75
2023-05-21T07:48:53.665Z,24.63
2023-05-21T07:51:20.590Z,24.59
2023-05-21T07:53:47.642Z,24.69
2023-05-21T07:56:15.353Z,24.85
2023-05-21T07:58:45.942Z,25.10
2023-05-21T08:01:14.123Z,25.47
2023-05-21T08:03:41.513Z,25.79
2023-05-21T08:06:08.526Z,26.00
2023-05-21T08:08:35.366Z,26.13
2023-05-21T08:11:02.547Z,26.15
2023-05-21T08:13:29.939Z,26.08
2023-05-21T08:15:56.970Z,26.13
2023-05-21T08:18:24.129Z,26.21
2023-05-21T08:20:51.949Z,26.23
2023-05-21T08:23:19.588Z,26.15
2023-05-21T08:25:49.939Z,26.04
2023-05-21T08:28:17.302Z,25.92
2023-05-21T08:30:44.347Z,25.84
2023-05-21T08:33:11.356Z,25.76
2023-05-21T08:35:38.854Z,25.65
2023-05-21T08:38:18.297Z,25.56
2023-05-21T08:41:10.228Z,25.50
2023-05-21T08:43:38.094Z,25.49
2023-05-21T08:46:06.490Z,25.59
2023-05-21T08:48:38.268Z,25.69
2023-05-21T08:51:05.931Z,25.85
2023-05-21T08:53:36.436Z,26.16
2023-05-21T08:56:06.574Z,26.51
2023-05-21T08:58:45.376Z,26.85
2023-05-21T09:01:13.191Z,27.08
2023-05-21T09:03:41.290Z,27.24
2023-05-21T09:06:14.252Z,27.49
2023-05-21T09:08:48.352Z,27.79
2023-05-21T09:11:21.819Z,28.07
2023-05-21T09:13:54.509Z,28.17
2023-05-21T09:16:29.650Z,28.32
2023-05-21T09:18:56.933Z,28.56
2023-05-21T09:21:31.670Z,28.75
2023-05-21T09:24:11.105Z,28.83
2023-05-21T09:26:38.116Z,28.79
2023-05-21T09:29:06.711Z,28.75
2023-05-21T09:31:33.561Z,28.80
2023-05-21T09:34:01.160Z,28.84
2023-05-21T09:36:29.696Z,28.82
2023-05-21T09:38:58.564Z,28.82
2023-05-21T09:41:36.142Z,28.81
2023-05-21T09:44:04.646Z,28.66
2023-05-21T09:46:42.118Z,28.64
2023-05-21T09:49:30.405Z,28.64
2023-05-21T09:51:59.133Z,28.48
2023-05-21T09:54:31.036Z,28.62
2023-05-21T09:56:57.820Z,28.90
2023-05-21T09:59:35.174Z,29.05
2023-05-21T10:02:02.555Z,29.20
2023-05-21T10:04:31.766Z,29.18
2023-05-21T10:07:01.031Z,29.22
2023-05-21T10:09:29.825Z,29.30
2023-05-21T10:11:57.712Z,29.20
2023-05-21T10:14:27.810Z,29.11
2023-05-21T10:16:56.573Z,29.08
2023-05-21T10:19:25.646Z,29.23
2023-05-21T10:21:54.391Z,29.30
2023-05-21T10:24:22.103Z,29.35
2023-05-21T10:26:49.326Z,29.41
2023-05-21T10:29:19.422Z,29.52
2023-05-21T10:31:50.138Z,29.59
2023-05-21T10:34:17.892Z,29.59
2023-05-21T10:36:46.334Z,29.48
2023-05-21T10:39:13.339Z,29.27
2023-05-21T10:41:53.833Z,29.23
2023-05-21T10:44:56.294Z,29.23
2023-05-21T10:47:42.678Z,28.96
2023-05-21T10:50:28.383Z,28.55
2023-05-21T10:52:58.275Z,28.51
2023-05-21T10:55:58.612Z,28.46
2023-05-21T10:58:43.597Z,28.39
2023-05-21T11:01:11.973Z,28.41
2023-05-21T11:03:39.323Z,28.49
2023-05-21T11:06:06.784Z,28.75
2023-05-21T11:08:37.674Z,29.08
2023-05-21T11:11:04.789Z,29.39
2023-05-21T11:13:49.548Z,29.66
2023-05-21T11:16:17.468Z,29.83
2023-05-21T11:18:47.425Z,29.95
2023-05-21T11:21:16.249Z,29.91
2023-05-21T11:23:52.957Z,29.94
2023-05-21T11:26:24.083Z,30.07
2023-05-21T11:29:08.702Z,30.27
2023-05-21T11:31:39.447Z,30.52
2023-05-21T11:34:29.828Z,30.62
2023-05-21T11:37:29.040Z,30.61
2023-05-21T11:39:58.149Z,30.72
2023-05-21T11:42:32.659Z,30.80
2023-05-21T11:45:00.897Z,30.65
2023-05-21T11:47:29.207Z,30.54
2023-05-21T11:50:00.465Z,30.54
2023-05-21T11:52:28.927Z,30.48
2023-05-21T11:54:57.007Z,30.38
2023-05-21T11:57:31.309Z,30.61
2023-05-21T12:00:00.050Z,30.63
2023-05-21T12:02:32.390Z,30.54
2023-05-21T12:05:04.131Z,30.66
2023-05-21T12:07:31.490Z,30.84
2023-05-21T12:09:58.992Z,30.84
2023-05-21T12:12:30.806Z,30.77
2023-05-21T12:15:02.702Z,30.88
2023-05-21T12:17:31.688Z,30.90
2023-05-21T12:19:58.984Z,30.74
2023-05-21T12:22:28.813Z,30.75
2023-05-21T12:24:58.461Z,30.67
2023-05-21T12:27:25.804Z,30.50
2023-05-21T12:29:56.968Z,30.33
2023-05-21T12:32:27.536Z,30.23
2023-05-21T12:35:00.794Z,30.07
2023-05-21T12:37:32.668Z,30.09
2023-05-21T12:40:01.551Z,30.30
2023-05-21T12:42:31.063Z,30.62
2023-05-21T12:44:58.489Z,30.87
2023-05-21T12:47:26.923Z,31.20
2023-05-21T12:50:00.772Z,31.23
2023-05-21T12:52:28.473Z,31.12
2023-05-21T12:54:56.908Z,31.01
2023-05-21T12:57:48.709Z,30.88
2023-05-21T13:00:23.180Z,30.60
2023-05-21T13:02:52.035Z,30.76
2023-05-21T13:05:19.670Z,30.67
2023-05-21T13:07:47.590Z,30.75
2023-05-21T13:10:16.790Z,30.83
2023-05-21T13:12:50.072Z,30.88
2023-05-21T13:15:18.085Z,30.79
2023-05-21T13:17:49.160Z,30.83
2023-05-21T13:20:21.831Z,30.68
2023-05-21T13:23:11.322Z,30.48
2023-05-21T13:26:11.574Z,30.62
2023-05-21T13:28:38.794Z,30.69
2023-05-21T13:31:07.395Z,30.38
2023-05-21T13:33:34.599Z,30.22
2023-05-21T13:36:01.692Z,30.30
2023-05-21T13:38:28.666Z,30.24
2023-05-21T13:40:55.480Z,29.98
2023-05-21T13:43:22.188Z,29.98
2023-05-21T13:45:49.852Z,30.12
2023-05-21T13:48:17.011Z,30.12
2023-05-21T13:50:43.920Z,29.82
2023-05-21T13:53:10.945Z,29.49
2023-05-21T13:55:38.027Z,29.07
2023-05-21T13:58:04.911Z,29.05
2023-05-21T14:00:31.611Z,29.26
2023-05-21T14:02:58.593Z,29.57
2023-05-21T14:05:25.456Z,29.69
2023-05-21T14:07:52.137Z,29.71
2023-05-21T14:10:18.875Z,29.75
2023-05-21T14:12:46.774Z,29.71
2023-05-21T14:15:13.511Z,29.72
2023-05-21T14:17:42.530Z,29.82
2023-05-21T14:20:10.305Z,29.77
2023-05-21T14:22:38.367Z,29.72
2023-05-21T14:25:05.859Z,29.75
2023-05-21T14:27:32.621Z,29.80
2023-05-21T14:29:59.293Z,29.91
2023-05-21T14:32:26.205Z,29.98
2023-05-21T14:34:52.918Z,29.87
2023-05-21T14:37:20.051Z,29.71
2023-05-21T14:39:46.862Z,29.53
2023-05-21T14:42:13.513Z,29.36
2023-05-21T14:44:40.358Z,29.16
2023-05-21T14:47:07.018Z,29.09
2023-05-21T14:49:33.719Z,29.11
2023-05-21T14:52:00.561Z,29.10
2023-05-21T14:54:27.197Z,29.15
2023-05-21T14:56:54.372Z,29.26
2023-05-21T14:59:21.049Z,29.37
2023-05-21T15:01:47.794Z,29.54
2023-05-21T15:04:14.616Z,29.65
2023-05-21T15:06:42.180Z,29.75
2023-05-21T15:09:09.014Z,29.89
2023-05-21T15:11:36.100Z,30.03
2023-05-21T15:14:02.778Z,30.04
2023-05-21T15:16:29.550Z,30.05
2023-05-21T15:18:56.698Z,29.94
2023-05-21T15:21:24.873Z,29.79
2023-05-21T15:23:53.493Z,29.58
2023-05-21T15:26:20.397Z,29.40
2023-05-21T15:28:47.263Z,29.24
2023-05-21T15:31:13.931Z,28.99
2023-05-21T15:33:40.645Z,28.81
2023-05-21T15:36:07.644Z,28.69
2023-05-21T15:38:34.255Z,28.65
2023-05-21T15:41:00.962Z,28.61
2023-05-21T15:43:27.629Z,28.61
2023-05-21T15:45:54.502Z,28.55
2023-05-21T15:48:23.062Z,28.47
2023-05-21T15:50:50.123Z,28.33
2023-05-21T15:53:17.098Z,28.18
2023-05-21T15:55:44.837Z,28.07
2023-05-21T15:58:11.564Z,27.96
2023-05-21T16:00:38.367Z,27.86
2023-05-21T16:03:05.276Z,27.81
2023-05-21T16:05:32.158Z,27.78
2023-05-21T16:07:58.869Z,27.73
2023-05-21T16:10:25.890Z,27.70
2023-05-21T16:12:52.592Z,27.66
2023-05-21T16:15:19.328Z,27.59
2023-05-21T16:17:46.607Z,27.50
2023-05-21T16:20:14.285Z,27.40
2023-05-21T16:22:40.954Z,27.29
2023-05-21T16:25:08.190Z,27.23
2023-05-21T16:27:35.607Z,27.18
2023-05-21T16:30:02.501Z,27.10
2023-05-21T16:32:29.385Z,27.05
2023-05-21T16:34:56.349Z,27.00
2023-05-21T16:37:23.127Z,26.98
2023-05-21T16:39:49.814Z,26.94
2023-05-21T16:42:16.603Z,26.90
2023-05-21T16:44:43.374Z,26.87
2023-05-21T16:47:10.271Z,26.82
2023-05-21T16:49:36.969Z,26.77
2023-05-21T16:52:03.689Z,26.71
2023-05-21T16:54:30.693Z,26.65
2023-05-21T16:56:57.389Z,26.60
2023-05-21T16:59:24.101Z,26.55
2023-05-21T17:01:51.101Z,26.51
2023-05-21T17:04:17.846Z,26.48
2023-05-21T17:06:44.737Z,26.42
2023-05-21T17:09:11.561Z,26.36
2023-05-21T17:11:38.270Z,26.31
2023-05-21T17:14:04.971Z,26.23
2023-05-21T17:16:31.752Z,26.15
2023-05-21T17:18:58.658Z,26.09
2023-05-21T17:21:26.802Z,26.05
2023-05-21T17:23:53.410Z,26.00
2023-05-21T17:26:20.168Z,25.98
2023-05-21T17:28:47.017Z,25.93
2023-05-21T17:31:14.752Z,25.89
2023-05-21T17:33:41.887Z,25.84
2023-05-21T17:36:08.477Z,25.78
2023-05-21T17:38:35.111Z,25.73
2023-05-21T17:41:01.843Z,25.68
2023-05-21T17:43:28.640Z,25.61
2023-05-21T17:45:55.469Z,25.55
2023-05-21T17:48:22.366Z,25.51
2023-05-21T17:50:49.228Z,25.44
2023-05-21T17:53:16.620Z,25.37
2023-05-21T17:55:43.576Z,25.30
2023-05-21T17:58:10.288Z,25.24
2023-05-21T18:00:37.063Z,25.18
2023-05-21T18:03:04.421Z,25.13
2023-05-21T18:05:31.182Z,25.09
2023-05-21T18:07:59.217Z,25.03
2023-05-21T18:10:25.962Z,24.95
2023-05-21T18:12:52.615Z,24.86
2023-05-21T18:15:19.449Z,24.75
2023-05-21T18:17:47.848Z,24.64
2023-05-21T18:20:14.974Z,24.55
2023-05-21T18:22:41.824Z,24.46
2023-05-21T18:25:09.292Z,24.35
2023-05-21T18:27:36.248Z,24.24
2023-05-21T18:30:06.452Z,24.11
2023-05-21T18:32:34.006Z,23.99
2023-05-21T18:35:00.735Z,23.88
2023-05-21T18:37:27.492Z,23.79
2023-05-21T18:39:54.233Z,23.70
2023-05-21T18:42:21.019Z,23.62
2023-05-21T18:44:51.332Z,23.56
2023-05-21T18:47:18.128Z,23.49
2023-05-21T18:49:44.827Z,23.42
2023-05-21T18:52:11.482Z,23.34
2023-05-21T18:54:38.526Z,23.26
2023-05-21T18:57:05.443Z,23.20
2023-05-21T18:59:32.275Z,23.13
2023-05-21T19:01:59.018Z,23.06
2023-05-21T19:04:25.865Z,23.01
2023-05-21T19:06:52.577Z,22.96
2023-05-21T19:09:19.340Z,22.91
2023-05-21T19:11:46.079Z,22.86
2023-05-21T19:14:12.880Z,22.83
2023-05-21T19:16:39.801Z,22.78
2023-05-21T19:19:06.755Z,22.73
2023-05-21T19:21:33.993Z,22.71
2023-05-21T19:24:01.296Z,22.65
2023-05-21T19:26:28.996Z,22.62
2023-05-21T19:28:56.690Z,22.59
2023-05-21T19:31:23.773Z,22.56
2023-05-21T19:33:50.943Z,22.53
2023-05-21T19:36:18.671Z,22.51
2023-05-21T19:38:49.673Z,22.48
2023-05-21T19:41:16.938Z,22.45
2023-05-21T19:43:45.701Z,22.43
2023-05-21T19:46:12.966Z,22.42
2023-05-21T19:48:39.795Z,22.39
2023-05-21T19:51:06.657Z,22.36
2023-05-21T19:53:33.372Z,22.33
2023-05-21T19:56:00.351Z,22.31
2023-05-21T19:58:29.613Z,22.28
2023-05-21T20:00:58.568Z,22.26
2023-05-21T20:03:26.859Z,22.24
2023-05-21T20:05:54.624Z,22.23
2023-05-21T20:08:21.852Z,22.23
2023-05-21T20:10:51.467Z,22.21
2023-05-21T20:13:19.250Z,22.19
2023-05-21T20:15:48.153Z,22.17
2023-05-21T20:18:15.457Z,22.15
2023-05-21T20:20:43.182Z,22.13
2023-05-21T20:23:09.868Z,22.11
2023-05-21T20:25:36.637Z,22.08
2023-05-21T20:28:04.381Z,22.06
2023-05-21T20:30:36.023Z,22.02
2023-05-21T20:33:03.734Z,21.97
2023-05-21T20:35:30.719Z,21.93
2023-05-21T20:37:57.736Z,21.90
2023-05-21T20:40:24.483Z,21.88
2023-05-21T20:42:53.690Z,21.87
2023-05-21T20:45:22.086Z,21.85
2023-05-21T20:47:49.920Z,21.84
2023-05-21T20:50:17.976Z,21.82
2023-05-21T20:52:47.029Z,21.81
2023-05-21T20:55:14.733Z,21.80
2023-05-21T20:57:42.293Z,21.80
2023-05-21T21:00:11.904Z,21.80
2023-05-21T21:02:39.317Z,21.78
2023-05-21T21:05:06.498Z,21.79
2023-05-21T21:07:34.402Z,21.80
2023-05-21T21:10:01.594Z,21.80
2023-05-21T21:12:28.621Z,21.79
2023-05-21T21:14:56.129Z,21.80
2023-05-21T21:17:23.243Z,21.80
2023-05-21T21:19:50.306Z,21.80
2023-05-21T21:22:18.509Z,21.80
2023-05-21T21:24:45.813Z,21.80
2023-05-21T21:27:13.044Z,21.80
2023-05-21T21:29:39.802Z,21.80
2023-05-21T21:32:07.110Z,21.80
2023-05-21T21:34:33.820Z,21.79
2023-05-21T21:37:00.559Z,21.78
2023-05-21T21:39:27.451Z,21.77
2023-05-21T21:41:54.237Z,21.75
2023-05-21T21:44:21.454Z,21.72
2023-05-21T21:46:48.126Z,21.70
2023-05-21T21:49:17.563Z,21.67
2023-05-21T21:51:45.045Z,21.65
2023-05-21T21:54:12.415Z,21.62
2023-05-21T21:56:39.262Z,21.59
2023-05-21T21:59:06.063Z,21.55
2023-05-21T22:01:33.245Z,21.52
2023-05-21T22:03:59.942Z,21.49
2023-05-21T22:06:27.706Z,21.46
2023-05-21T22:08:55.112Z,21.44
2023-05-21T22:11:22.109Z,21.43
2023-05-21T22:13:49.170Z,21.43
2023-05-21T22:16:16.217Z,21.44
2023-05-21T22:18:43.169Z,21.44
2023-05-21T22:21:10.932Z,21.44
2023-05-21T22:23:38.591Z,21.43
2023-05-21T22:26:06.316Z,21.43
2023-05-21T22:28:33.080Z,21.43
2023-05-21T22:30:59.841Z,21.42
2023-05-21T22:33:26.944Z,21.41
2023-05-21T22:35:54.653Z,21.41
2023-05-21T22:38:21.655Z,21.40
2023-05-21T22:40:48.552Z,21.41
2023-05-21T22:43:15.360Z,21.47
2023-05-21T22:45:42.530Z,21.54
2023-05-21T22:48:09.876Z,21.60
2023-05-21T22:50:38.726Z,21.64
2023-05-21T22:53:07.056Z,21.73
2023-05-21T22:55:33.876Z,21.85
2023-05-21T22:58:00.836Z,22.02
2023-05-21T23:00:27.565Z,22.17
2023-05-21T23:02:54.748Z,22.27
2023-05-21T23:05:22.657Z,22.36
2023-05-21T23:07:49.645Z,22.44
2023-05-21T23:10:16.576Z,22.53
2023-05-21T23:12:43.468Z,22.60
2023-05-21T23:15:10.842Z,22.65
2023-05-21T23:17:38.494Z,22.72
2023-05-21T23:20:07.289Z,22.76
2023-05-21T23:22:34.715Z,22.77
2023-05-21T23:25:01.662Z,22.78
2023-05-21T23:27:28.813Z,22.80
2023-05-21T23:29:55.764Z,22.82
2023-05-21T23:32:23.639Z,22.83
2023-05-21T23:34:50.884Z,22.83
2023-05-21T23:37:17.999Z,22.81
2023-05-21T23:39:48.275Z,22.82
2023-05-21T23:42:16.541Z,22.83
2023-05-21T23:44:43.578Z,22.85
2023-05-21T23:47:10.723Z,22.88
2023-05-21T23:49:37.562Z,22.89
2023-05-21T23:52:06.218Z,22.91
2023-05-21T23:54:33.095Z,22.91
2023-05-21T23:56:59.772Z,22.91
2023-05-21T23:59:26.442Z,22.92
